sensor_id;sensor_type;location;lat;lon;timestamp;P1;durP1;ratioP1;P2;durP2;ratioP2
59424;SDS011;45231;44.826;20.312;2023-05-07T00:00:33;9.77;;;5.70;;
59424;SDS011;45231;44.826;20.312;2023-05-07T00:02:59;10.82;;;4.80;;
59424;SDS011;45231;44.826;20.312;2023-05-07T00:07:52;7.95;;;4.88;;
59424;SDS011;45231;44.826;20.312;2023-05-07T00:10:18;7.85;;;4.70;;
59424;SDS011;45231;44.826;20.312;2023-05-07T00:12:44;8.02;;;4.75;;
59424;SDS011;45231;44.826;20.312;2023-05-07T00:15:10;8.55;;;4.93;;
59424;SDS011;45231;44.826;20.312;2023-05-07T00:17:36;10.48;;;4.80;;
59424;SDS011;45231;44.826;20.312;2023-05-07T00:20:03;8.18;;;4.90;;
59424;SDS011;45231;44.826;20.312;2023-05-07T00:22:30;7.80;;;5.03;;
59424;SDS011;45231;44.826;20.312;2023-05-07T00:24:57;8.27;;;4.63;;
59424;SDS011;45231;44.826;20.312;2023-05-07T00:27:24;9.75;;;5.20;;
59424;SDS011;45231;44.826;20.312;2023-05-07T00:29:50;10.23;;;4.82;;
59424;SDS011;45231;44.826;20.312;2023-05-07T00:32:16;10.35;;;5.45;;
59424;SDS011;45231;44.826;20.312;2023-05-07T00:34:43;7.38;;;4.70;;
59424;SDS011;45231;44.826;20.312;2023-05-07T00:37:09;9.05;;;4.82;;
59424;SDS011;45231;44.826;20.312;2023-05-07T00:39:36;9.80;;;5.25;;
59424;SDS011;45231;44.826;20.312;2023-05-07T00:42:03;8.75;;;5.00;;
59424;SDS011;45231;44.826;20.312;2023-05-07T00:44:29;8.63;;;5.15;;
59424;SDS011;45231;44.826;20.312;2023-05-07T00:46:55;10.45;;;4.50;;
59424;SDS011;45231;44.826;20.312;2023-05-07T00:49:22;10.52;;;4.75;;
59424;SDS011;45231;44.826;20.312;2023-05-07T00:51:50;8.13;;;4.82;;
59424;SDS011;45231;44.826;20.312;2023-05-07T00:54:16;10.85;;;5.05;;
59424;SDS011;45231;44.826;20.312;2023-05-07T00:56:42;9.98;;;4.95;;
59424;SDS011;45231;44.826;20.312;2023-05-07T00:59:08;9.45;;;4.90;;
59424;SDS011;45231;44.826;20.312;2023-05-07T01:01:34;9.60;;;4.75;;
59424;SDS011;45231;44.826;20.312;2023-05-07T01:04:01;9.18;;;4.63;;
59424;SDS011;45231;44.826;20.312;2023-05-07T01:06:27;9.02;;;4.88;;
59424;SDS011;45231;44.826;20.312;2023-05-07T01:08:55;9.05;;;5.00;;
59424;SDS011;45231;44.826;20.312;2023-05-07T01:11:22;7.53;;;4.50;;
59424;SDS011;45231;44.826;20.312;2023-05-07T01:13:49;10.18;;;5.10;;
59424;SDS011;45231;44.826;20.312;2023-05-07T01:16:16;13.77;;;5.40;;
59424;SDS011;45231;44.826;20.312;2023-05-07T01:18:42;7.60;;;4.75;;
59424;SDS011;45231;44.826;20.312;2023-05-07T01:21:08;7.63;;;4.47;;
59424;SDS011;45231;44.826;20.312;2023-05-07T01:23:37;8.50;;;4.80;;
59424;SDS011;45231;44.826;20.312;2023-05-07T01:26:04;9.00;;;5.00;;
59424;SDS011;45231;44.826;20.312;2023-05-07T01:28:30;8.45;;;4.93;;
59424;SDS011;45231;44.826;20.312;2023-05-07T01:30:58;10.60;;;4.68;;
59424;SDS011;45231;44.826;20.312;2023-05-07T01:33:26;10.40;;;5.88;;
59424;SDS011;45231;44.826;20.312;2023-05-07T01:35:56;10.65;;;4.60;;
59424;SDS011;45231;44.826;20.312;2023-05-07T01:38:25;11.70;;;5.30;;
59424;SDS011;45231;44.826;20.312;2023-05-07T01:40:51;8.75;;;5.32;;
59424;SDS011;45231;44.826;20.312;2023-05-07T01:43:17;8.25;;;4.45;;
59424;SDS011;45231;44.826;20.312;2023-05-07T01:45:43;8.52;;;4.88;;
59424;SDS011;45231;44.826;20.312;2023-05-07T01:48:11;8.85;;;4.85;;
59424;SDS011;45231;44.826;20.312;2023-05-07T01:50:37;8.82;;;4.65;;
59424;SDS011;45231;44.826;20.312;2023-05-07T01:53:03;10.52;;;5.30;;
59424;SDS011;45231;44.826;20.312;2023-05-07T01:55:29;9.77;;;5.25;;
59424;SDS011;45231;44.826;20.312;2023-05-07T01:57:55;9.13;;;4.95;;
59424;SDS011;45231;44.826;20.312;2023-05-07T02:00:22;9.05;;;4.80;;
59424;SDS011;45231;44.826;20.312;2023-05-07T02:02:48;9.68;;;4.90;;
59424;SDS011;45231;44.826;20.312;2023-05-07T02:05:14;8.80;;;4.75;;
59424;SDS011;45231;44.826;20.312;2023-05-07T02:07:40;12.57;;;6.03;;
59424;SDS011;45231;44.826;20.312;2023-05-07T02:10:06;9.65;;;5.97;;
59424;SDS011;45231;44.826;20.312;2023-05-07T02:12:32;9.48;;;5.47;;
59424;SDS011;45231;44.826;20.312;2023-05-07T02:14:58;8.07;;;4.95;;
59424;SDS011;45231;44.826;20.312;2023-05-07T02:17:24;10.52;;;4.80;;
59424;SDS011;45231;44.826;20.312;2023-05-07T02:19:51;7.95;;;5.00;;
59424;SDS011;45231;44.826;20.312;2023-05-07T02:22:17;8.75;;;5.03;;
59424;SDS011;45231;44.826;20.312;2023-05-07T02:24:43;8.07;;;4.72;;
59424;SDS011;45231;44.826;20.312;2023-05-07T02:27:09;7.50;;;4.63;;
59424;SDS011;45231;44.826;20.312;2023-05-07T02:29:35;9.05;;;4.97;;
59424;SDS011;45231;44.826;20.312;2023-05-07T02:32:01;9.83;;;4.80;;
59424;SDS011;45231;44.826;20.312;2023-05-07T02:34:27;9.05;;;5.43;;
59424;SDS011;45231;44.826;20.312;2023-05-07T02:36:53;10.20;;;4.80;;
59424;SDS011;45231;44.826;20.312;2023-05-07T02:41:46;8.60;;;5.35;;
59424;SDS011;45231;44.826;20.312;2023-05-07T02:44:12;10.25;;;6.13;;
59424;SDS011;45231;44.826;20.312;2023-05-07T02:46:38;7.43;;;4.72;;
59424;SDS011;45231;44.826;20.312;2023-05-07T02:49:05;7.07;;;4.57;;
59424;SDS011;45231;44.826;20.312;2023-05-07T02:51:31;7.88;;;4.95;;
59424;SDS011;45231;44.826;20.312;2023-05-07T02:53:57;9.43;;;4.88;;
59424;SDS011;45231;44.826;20.312;2023-05-07T02:56:25;7.40;;;4.70;;
59424;SDS011;45231;44.826;20.312;2023-05-07T02:58:51;9.10;;;5.22;;
59424;SDS011;45231;44.826;20.312;2023-05-07T03:01:17;7.43;;;4.60;;
59424;SDS011;45231;44.826;20.312;2023-05-07T03:03:43;8.17;;;4.50;;
59424;SDS011;45231;44.826;20.312;2023-05-07T03:06:09;8.45;;;4.32;;
59424;SDS011;45231;44.826;20.312;2023-05-07T03:08:35;8.25;;;4.50;;
59424;SDS011;45231;44.826;20.312;2023-05-07T03:11:02;7.93;;;4.75;;
59424;SDS011;45231;44.826;20.312;2023-05-07T03:13:28;8.13;;;4.75;;
59424;SDS011;45231;44.826;20.312;2023-05-07T03:15:54;8.73;;;4.68;;
59424;SDS011;45231;44.826;20.312;2023-05-07T03:18:20;7.68;;;4.20;;
59424;SDS011;45231;44.826;20.312;2023-05-07T03:20:47;8.27;;;4.40;;
59424;SDS011;45231;44.826;20.312;2023-05-07T03:23:14;7.63;;;4.88;;
59424;SDS011;45231;44.826;20.312;2023-05-07T03:25:40;7.40;;;4.37;;
59424;SDS011;45231;44.826;20.312;2023-05-07T03:28:06;6.63;;;4.27;;
59424;SDS011;45231;44.826;20.312;2023-05-07T03:30:32;6.65;;;4.30;;
59424;SDS011;45231;44.826;20.312;2023-05-07T03:32:58;7.78;;;4.63;;
59424;SDS011;45231;44.826;20.312;2023-05-07T03:35:24;7.55;;;4.53;;
59424;SDS011;45231;44.826;20.312;2023-05-07T03:37:51;7.47;;;4.50;;
59424;SDS011;45231;44.826;20.312;2023-05-07T03:40:17;7.07;;;4.47;;
59424;SDS011;45231;44.826;20.312;2023-05-07T03:42:43;7.43;;;4.60;;
59424;SDS011;45231;44.826;20.312;2023-05-07T03:47:35;7.40;;;4.35;;
59424;SDS011;45231;44.826;20.312;2023-05-07T03:50:01;8.55;;;4.15;;
59424;SDS011;45231;44.826;20.312;2023-05-07T03:52:27;6.07;;;3.88;;
59424;SDS011;45231;44.826;20.312;2023-05-07T03:54:53;8.52;;;3.88;;
59424;SDS011;45231;44.826;20.312;2023-05-07T03:57:19;7.93;;;4.20;;
59424;SDS011;45231;44.826;20.312;2023-05-07T03:59:45;9.15;;;4.63;;
59424;SDS011;45231;44.826;20.312;2023-05-07T04:02:11;8.52;;;4.30;;
59424;SDS011;45231;44.826;20.312;2023-05-07T04:04:37;9.88;;;4.30;;
59424;SDS011;45231;44.826;20.312;2023-05-07T04:07:04;7.03;;;4.20;;
59424;SDS011;45231;44.826;20.312;2023-05-07T04:09:30;5.90;;;3.88;;
59424;SDS011;45231;44.826;20.312;2023-05-07T04:11:56;8.30;;;3.78;;
59424;SDS011;45231;44.826;20.312;2023-05-07T04:14:22;7.88;;;3.97;;
59424;SDS011;45231;44.826;20.312;2023-05-07T04:16:48;6.05;;;4.03;;
59424;SDS011;45231;44.826;20.312;2023-05-07T04:19:14;8.60;;;4.05;;
59424;SDS011;45231;44.826;20.312;2023-05-07T04:21:40;6.15;;;3.53;;
59424;SDS011;45231;44.826;20.312;2023-05-07T04:24:06;6.05;;;3.78;;
59424;SDS011;45231;44.826;20.312;2023-05-07T04:26:32;8.63;;;3.88;;
59424;SDS011;45231;44.826;20.312;2023-05-07T04:28:58;6.93;;;3.88;;
59424;SDS011;45231;44.826;20.312;2023-05-07T04:31:25;6.57;;;3.50;;
59424;SDS011;45231;44.826;20.312;2023-05-07T04:33:51;6.82;;;3.63;;
59424;SDS011;45231;44.826;20.312;2023-05-07T04:36:17;6.07;;;3.58;;
59424;SDS011;45231;44.826;20.312;2023-05-07T04:38:43;6.55;;;3.55;;
59424;SDS011;45231;44.826;20.312;2023-05-07T04:41:12;9.55;;;3.58;;
59424;SDS011;45231;44.826;20.312;2023-05-07T04:43:38;7.07;;;3.70;;
59424;SDS011;45231;44.826;20.312;2023-05-07T04:48:31;7.70;;;3.60;;
59424;SDS011;45231;44.826;20.312;2023-05-07T04:50:57;8.48;;;3.55;;
59424;SDS011;45231;44.826;20.312;2023-05-07T04:53:23;7.90;;;3.60;;
59424;SDS011;45231;44.826;20.312;2023-05-07T04:55:54;5.75;;;3.30;;
59424;SDS011;45231;44.826;20.312;2023-05-07T04:58:20;8.32;;;3.75;;
59424;SDS011;45231;44.826;20.312;2023-05-07T05:00:46;7.45;;;4.10;;
59424;SDS011;45231;44.826;20.312;2023-05-07T05:03:12;7.38;;;3.72;;
59424;SDS011;45231;44.826;20.312;2023-05-07T05:05:38;7.18;;;3.65;;
59424;SDS011;45231;44.826;20.312;2023-05-07T05:08:05;10.73;;;4.15;;
59424;SDS011;45231;44.826;20.312;2023-05-07T05:10:31;8.63;;;3.85;;
59424;SDS011;45231;44.826;20.312;2023-05-07T05:12:57;10.32;;;4.13;;
59424;SDS011;45231;44.826;20.312;2023-05-07T05:15:23;6.68;;;3.92;;
59424;SDS011;45231;44.826;20.312;2023-05-07T05:17:49;5.57;;;3.30;;
59424;SDS011;45231;44.826;20.312;2023-05-07T05:20:15;6.68;;;3.83;;
59424;SDS011;45231;44.826;20.312;2023-05-07T05:22:41;6.35;;;3.35;;
59424;SDS011;45231;44.826;20.312;2023-05-07T05:25:07;6.60;;;3.40;;
59424;SDS011;45231;44.826;20.312;2023-05-07T05:27:34;7.07;;;3.72;;
59424;SDS011;45231;44.826;20.312;2023-05-07T05:30:01;7.32;;;3.30;;
59424;SDS011;45231;44.826;20.312;2023-05-07T05:32:27;5.88;;;3.42;;
59424;SDS011;45231;44.826;20.312;2023-05-07T05:34:53;6.47;;;3.35;;
59424;SDS011;45231;44.826;20.312;2023-05-07T05:37:20;7.32;;;3.53;;
59424;SDS011;45231;44.826;20.312;2023-05-07T05:39:46;5.85;;;3.03;;
59424;SDS011;45231;44.826;20.312;2023-05-07T05:42:12;7.57;;;3.40;;
59424;SDS011;45231;44.826;20.312;2023-05-07T05:44:38;6.57;;;3.22;;
59424;SDS011;45231;44.826;20.312;2023-05-07T05:47:04;8.18;;;3.47;;
59424;SDS011;45231;44.826;20.312;2023-05-07T05:49:31;6.55;;;3.40;;
59424;SDS011;45231;44.826;20.312;2023-05-07T05:51:57;7.05;;;3.40;;
59424;SDS011;45231;44.826;20.312;2023-05-07T05:54:23;7.53;;;3.28;;
59424;SDS011;45231;44.826;20.312;2023-05-07T05:56:49;6.47;;;3.10;;
59424;SDS011;45231;44.826;20.312;2023-05-07T05:59:15;5.70;;;3.05;;
59424;SDS011;45231;44.826;20.312;2023-05-07T06:01:41;7.85;;;3.13;;
59424;SDS011;45231;44.826;20.312;2023-05-07T06:04:07;9.02;;;3.20;;
59424;SDS011;45231;44.826;20.312;2023-05-07T06:06:33;7.60;;;3.25;;
59424;SDS011;45231;44.826;20.312;2023-05-07T06:08:59;6.00;;;2.97;;
59424;SDS011;45231;44.826;20.312;2023-05-07T06:11:25;5.47;;;3.03;;
59424;SDS011;45231;44.826;20.312;2023-05-07T06:13:51;6.00;;;2.90;;
59424;SDS011;45231;44.826;20.312;2023-05-07T06:16:18;6.00;;;3.00;;
59424;SDS011;45231;44.826;20.312;2023-05-07T06:18:44;5.72;;;2.80;;
59424;SDS011;45231;44.826;20.312;2023-05-07T06:21:11;8.50;;;3.30;;
59424;SDS011;45231;44.826;20.312;2023-05-07T06:23:37;7.93;;;3.30;;
59424;SDS011;45231;44.826;20.312;2023-05-07T06:26:05;7.47;;;3.47;;
59424;SDS011;45231;44.826;20.312;2023-05-07T06:28:31;5.43;;;2.70;;
59424;SDS011;45231;44.826;20.312;2023-05-07T06:31:13;5.32;;;2.85;;
59424;SDS011;45231;44.826;20.312;2023-05-07T06:33:40;6.57;;;3.20;;
59424;SDS011;45231;44.826;20.312;2023-05-07T06:38:32;6.13;;;2.70;;
59424;SDS011;45231;44.826;20.312;2023-05-07T06:40:58;7.05;;;2.88;;
59424;SDS011;45231;44.826;20.312;2023-05-07T06:43:24;6.25;;;3.00;;
59424;SDS011;45231;44.826;20.312;2023-05-07T06:45:50;6.45;;;3.03;;
59424;SDS011;45231;44.826;20.312;2023-05-07T06:48:16;5.45;;;3.00;;
59424;SDS011;45231;44.826;20.312;2023-05-07T06:50:42;8.00;;;2.92;;
59424;SDS011;45231;44.826;20.312;2023-05-07T06:53:08;4.75;;;2.78;;
59424;SDS011;45231;44.826;20.312;2023-05-07T06:58:00;5.75;;;2.75;;
59424;SDS011;45231;44.826;20.312;2023-05-07T07:00:27;7.05;;;2.90;;
59424;SDS011;45231;44.826;20.312;2023-05-07T07:02:53;6.10;;;2.90;;
59424;SDS011;45231;44.826;20.312;2023-05-07T07:05:19;8.05;;;2.90;;
59424;SDS011;45231;44.826;20.312;2023-05-07T07:10:20;5.32;;;2.80;;
59424;SDS011;45231;44.826;20.312;2023-05-07T07:12:46;5.60;;;2.83;;
59424;SDS011;45231;44.826;20.312;2023-05-07T07:17:39;6.78;;;3.03;;
59424;SDS011;45231;44.826;20.312;2023-05-07T07:20:05;5.68;;;2.55;;
59424;SDS011;45231;44.826;20.312;2023-05-07T07:22:32;6.75;;;2.67;;
59424;SDS011;45231;44.826;20.312;2023-05-07T07:27:23;5.97;;;2.90;;
59424;SDS011;45231;44.826;20.312;2023-05-07T07:32:15;10.52;;;2.92;;
59424;SDS011;45231;44.826;20.312;2023-05-07T07:37:07;8.95;;;2.90;;
59424;SDS011;45231;44.826;20.312;2023-05-07T07:39:34;5.38;;;2.80;;
59424;SDS011;45231;44.826;20.312;2023-05-07T07:42:02;7.30;;;2.80;;
59424;SDS011;45231;44.826;20.312;2023-05-07T07:44:28;6.75;;;2.72;;
59424;SDS011;45231;44.826;20.312;2023-05-07T07:46:55;6.85;;;2.72;;
59424;SDS011;45231;44.826;20.312;2023-05-07T07:49:21;5.15;;;2.60;;
59424;SDS011;45231;44.826;20.312;2023-05-07T07:51:47;6.00;;;2.70;;
59424;SDS011;45231;44.826;20.312;2023-05-07T07:54:13;8.45;;;2.83;;
59424;SDS011;45231;44.826;20.312;2023-05-07T07:56:39;8.43;;;2.72;;
59424;SDS011;45231;44.826;20.312;2023-05-07T07:59:05;7.68;;;2.70;;
59424;SDS011;45231;44.826;20.312;2023-05-07T08:01:31;10.02;;;3.13;;
59424;SDS011;45231;44.826;20.312;2023-05-07T08:03:57;8.55;;;2.72;;
59424;SDS011;45231;44.826;20.312;2023-05-07T08:06:24;5.22;;;2.60;;
59424;SDS011;45231;44.826;20.312;2023-05-07T08:08:53;5.60;;;3.03;;
59424;SDS011;45231;44.826;20.312;2023-05-07T08:11:19;6.80;;;2.60;;
59424;SDS011;45231;44.826;20.312;2023-05-07T08:13:46;5.40;;;2.47;;
59424;SDS011;45231;44.826;20.312;2023-05-07T08:16:12;5.30;;;2.50;;
59424;SDS011;45231;44.826;20.312;2023-05-07T08:18:39;6.50;;;2.40;;
59424;SDS011;45231;44.826;20.312;2023-05-07T08:21:05;7.35;;;2.83;;
59424;SDS011;45231;44.826;20.312;2023-05-07T08:23:31;6.47;;;2.15;;
59424;SDS011;45231;44.826;20.312;2023-05-07T08:25:59;9.23;;;2.72;;
59424;SDS011;45231;44.826;20.312;2023-05-07T08:28:25;5.65;;;2.35;;
59424;SDS011;45231;44.826;20.312;2023-05-07T08:30:51;5.63;;;2.20;;
59424;SDS011;45231;44.826;20.312;2023-05-07T08:33:17;6.95;;;2.40;;
59424;SDS011;45231;44.826;20.312;2023-05-07T08:35:43;6.53;;;2.47;;
59424;SDS011;45231;44.826;20.312;2023-05-07T08:38:09;5.00;;;2.50;;
59424;SDS011;45231;44.826;20.312;2023-05-07T08:40:37;5.85;;;2.53;;
59424;SDS011;45231;44.826;20.312;2023-05-07T08:43:10;5.30;;;2.38;;
59424;SDS011;45231;44.826;20.312;2023-05-07T08:45:38;8.13;;;2.53;;
59424;SDS011;45231;44.826;20.312;2023-05-07T08:48:07;4.75;;;2.40;;
59424;SDS011;45231;44.826;20.312;2023-05-07T08:50:37;6.03;;;2.65;;
59424;SDS011;45231;44.826;20.312;2023-05-07T08:53:04;6.03;;;2.60;;
59424;SDS011;45231;44.826;20.312;2023-05-07T08:55:30;5.97;;;2.55;;
59424;SDS011;45231;44.826;20.312;2023-05-07T08:57:59;5.72;;;2.40;;
59424;SDS011;45231;44.826;20.312;2023-05-07T09:00:26;7.78;;;2.58;;
59424;SDS011;45231;44.826;20.312;2023-05-07T09:02:52;6.45;;;2.47;;
59424;SDS011;45231;44.826;20.312;2023-05-07T09:05:19;6.10;;;2.53;;
59424;SDS011;45231;44.826;20.312;2023-05-07T09:07:45;7.93;;;3.42;;
59424;SDS011;45231;44.826;20.312;2023-05-07T09:10:11;5.93;;;2.85;;
59424;SDS011;45231;44.826;20.312;2023-05-07T09:12:38;6.68;;;2.78;;
59424;SDS011;45231;44.826;20.312;2023-05-07T09:15:04;5.82;;;2.90;;
59424;SDS011;45231;44.826;20.312;2023-05-07T09:17:31;7.30;;;2.60;;
59424;SDS011;45231;44.826;20.312;2023-05-07T09:20:01;5.68;;;2.47;;
59424;SDS011;45231;44.826;20.312;2023-05-07T09:22:31;6.63;;;2.60;;
59424;SDS011;45231;44.826;20.312;2023-05-07T09:24:57;7.25;;;2.38;;
59424;SDS011;45231;44.826;20.312;2023-05-07T09:27:23;6.75;;;2.55;;
59424;SDS011;45231;44.826;20.312;2023-05-07T09:29:49;8.70;;;2.85;;
59424;SDS011;45231;44.826;20.312;2023-05-07T09:32:15;8.10;;;3.00;;
59424;SDS011;45231;44.826;20.312;2023-05-07T09:34:41;8.05;;;3.15;;
59424;SDS011;45231;44.826;20.312;2023-05-07T09:37:08;5.00;;;2.60;;
59424;SDS011;45231;44.826;20.312;2023-05-07T09:39:38;7.43;;;2.78;;
59424;SDS011;45231;44.826;20.312;2023-05-07T09:42:04;6.35;;;3.10;;
59424;SDS011;45231;44.826;20.312;2023-05-07T09:44:31;5.47;;;2.80;;
59424;SDS011;45231;44.826;20.312;2023-05-07T09:46:57;5.97;;;2.60;;
59424;SDS011;45231;44.826;20.312;2023-05-07T09:49:25;4.82;;;2.60;;
59424;SDS011;45231;44.826;20.312;2023-05-07T09:51:55;6.05;;;2.80;;
59424;SDS011;45231;44.826;20.312;2023-05-07T09:54:24;5.95;;;2.90;;
59424;SDS011;45231;44.826;20.312;2023-05-07T09:56:51;9.15;;;3.00;;
59424;SDS011;45231;44.826;20.312;2023-05-07T09:59:18;7.07;;;2.95;;
59424;SDS011;45231;44.826;20.312;2023-05-07T10:01:44;7.10;;;3.10;;
59424;SDS011;45231;44.826;20.312;2023-05-07T10:04:11;6.10;;;3.15;;
59424;SDS011;45231;44.826;20.312;2023-05-07T10:06:37;5.78;;;2.97;;
59424;SDS011;45231;44.826;20.312;2023-05-07T10:09:04;7.72;;;3.15;;
59424;SDS011;45231;44.826;20.312;2023-05-07T10:11:33;5.72;;;2.90;;
59424;SDS011;45231;44.826;20.312;2023-05-07T10:14:00;7.15;;;2.63;;
59424;SDS011;45231;44.826;20.312;2023-05-07T10:16:27;6.20;;;3.03;;
59424;SDS011;45231;44.826;20.312;2023-05-07T10:18:55;7.07;;;3.28;;
59424;SDS011;45231;44.826;20.312;2023-05-07T10:21:23;9.57;;;3.25;;
59424;SDS011;45231;44.826;20.312;2023-05-07T10:23:59;5.95;;;2.70;;
59424;SDS011;45231;44.826;20.312;2023-05-07T10:26:27;6.90;;;2.83;;
59424;SDS011;45231;44.826;20.312;2023-05-07T10:28:56;8.20;;;2.88;;
59424;SDS011;45231;44.826;20.312;2023-05-07T10:34:00;7.15;;;2.60;;
59424;SDS011;45231;44.826;20.312;2023-05-07T10:36:27;5.82;;;2.63;;
59424;SDS011;45231;44.826;20.312;2023-05-07T10:38:54;6.90;;;3.08;;
59424;SDS011;45231;44.826;20.312;2023-05-07T10:41:20;6.50;;;2.63;;
59424;SDS011;45231;44.826;20.312;2023-05-07T10:43:46;5.55;;;2.60;;
59424;SDS011;45231;44.826;20.312;2023-05-07T10:51:31;8.85;;;2.78;;
59424;SDS011;45231;44.826;20.312;2023-05-07T10:56:39;6.35;;;2.63;;
59424;SDS011;45231;44.826;20.312;2023-05-07T11:01:57;5.85;;;2.40;;
59424;SDS011;45231;44.826;20.312;2023-05-07T11:04:24;5.55;;;2.75;;
59424;SDS011;45231;44.826;20.312;2023-05-07T11:17:32;7.07;;;3.10;;
59424;SDS011;45231;44.826;20.312;2023-05-07T11:20:00;6.40;;;2.85;;
59424;SDS011;45231;44.826;20.312;2023-05-07T11:24:59;8.27;;;2.95;;
59424;SDS011;45231;44.826;20.312;2023-05-07T11:27:26;5.50;;;2.65;;
59424;SDS011;45231;44.826;20.312;2023-05-07T11:29:52;7.13;;;3.10;;
59424;SDS011;45231;44.826;20.312;2023-05-07T11:32:25;6.80;;;2.50;;
59424;SDS011;45231;44.826;20.312;2023-05-07T11:34:52;4.70;;;2.50;;
59424;SDS011;45231;44.826;20.312;2023-05-07T11:37:19;6.60;;;2.78;;
59424;SDS011;45231;44.826;20.312;2023-05-07T11:39:45;8.10;;;3.03;;
59424;SDS011;45231;44.826;20.312;2023-05-07T11:44:56;7.97;;;2.78;;
59424;SDS011;45231;44.826;20.312;2023-05-07T11:47:23;6.80;;;3.00;;
59424;SDS011;45231;44.826;20.312;2023-05-07T11:49:51;7.68;;;2.80;;
59424;SDS011;45231;44.826;20.312;2023-05-07T11:52:17;4.95;;;2.30;;
59424;SDS011;45231;44.826;20.312;2023-05-07T11:57:16;7.10;;;3.17;;
59424;SDS011;45231;44.826;20.312;2023-05-07T11:59:42;7.55;;;3.20;;
59424;SDS011;45231;44.826;20.312;2023-05-07T12:02:13;4.93;;;2.55;;
59424;SDS011;45231;44.826;20.312;2023-05-07T12:04:40;8.52;;;2.60;;
59424;SDS011;45231;44.826;20.312;2023-05-07T12:07:13;6.07;;;2.67;;
59424;SDS011;45231;44.826;20.312;2023-05-07T12:09:42;6.43;;;2.90;;
59424;SDS011;45231;44.826;20.312;2023-05-07T12:12:08;5.60;;;2.40;;
59424;SDS011;45231;44.826;20.312;2023-05-07T12:14:44;4.90;;;2.80;;
59424;SDS011;45231;44.826;20.312;2023-05-07T12:17:11;6.28;;;3.05;;
59424;SDS011;45231;44.826;20.312;2023-05-07T12:19:38;6.75;;;3.10;;
59424;SDS011;45231;44.826;20.312;2023-05-07T12:22:05;5.20;;;2.53;;
59424;SDS011;45231;44.826;20.312;2023-05-07T12:24:44;6.47;;;2.78;;
59424;SDS011;45231;44.826;20.312;2023-05-07T12:27:10;5.40;;;2.65;;
59424;SDS011;45231;44.826;20.312;2023-05-07T12:29:36;7.28;;;2.53;;
59424;SDS011;45231;44.826;20.312;2023-05-07T12:32:05;6.22;;;3.00;;
59424;SDS011;45231;44.826;20.312;2023-05-07T12:34:32;5.90;;;2.60;;
59424;SDS011;45231;44.826;20.312;2023-05-07T12:37:01;5.53;;;2.55;;
59424;SDS011;45231;44.826;20.312;2023-05-07T12:39:28;5.43;;;2.70;;
59424;SDS011;45231;44.826;20.312;2023-05-07T12:41:55;5.85;;;2.60;;
59424;SDS011;45231;44.826;20.312;2023-05-07T12:44:31;4.55;;;2.60;;
59424;SDS011;45231;44.826;20.312;2023-05-07T12:46:57;5.10;;;2.28;;
59424;SDS011;45231;44.826;20.312;2023-05-07T12:49:25;4.65;;;2.50;;
59424;SDS011;45231;44.826;20.312;2023-05-07T12:51:51;5.22;;;2.40;;
59424;SDS011;45231;44.826;20.312;2023-05-07T12:54:34;5.50;;;2.30;;
59424;SDS011;45231;44.826;20.312;2023-05-07T12:57:07;6.03;;;2.63;;
59424;SDS011;45231;44.826;20.312;2023-05-07T12:59:34;6.00;;;3.50;;
59424;SDS011;45231;44.826;20.312;2023-05-07T13:02:01;5.55;;;2.80;;
59424;SDS011;45231;44.826;20.312;2023-05-07T13:04:28;5.28;;;2.50;;
59424;SDS011;45231;44.826;20.312;2023-05-07T13:06:54;4.85;;;2.70;;
59424;SDS011;45231;44.826;20.312;2023-05-07T13:09:20;7.38;;;3.60;;
59424;SDS011;45231;44.826;20.312;2023-05-07T13:11:46;6.85;;;3.08;;
59424;SDS011;45231;44.826;20.312;2023-05-07T13:14:12;11.05;;;6.03;;
59424;SDS011;45231;44.826;20.312;2023-05-07T13:16:38;7.50;;;3.13;;
59424;SDS011;45231;44.826;20.312;2023-05-07T13:19:04;5.47;;;2.70;;
59424;SDS011;45231;44.826;20.312;2023-05-07T13:21:30;7.35;;;2.60;;
59424;SDS011;45231;44.826;20.312;2023-05-07T13:23:59;4.43;;;2.28;;
59424;SDS011;45231;44.826;20.312;2023-05-07T13:26:25;4.07;;;2.10;;
59424;SDS011;45231;44.826;20.312;2023-05-07T13:28:52;7.90;;;2.38;;
59424;SDS011;45231;44.826;20.312;2023-05-07T13:31:18;5.93;;;2.70;;
59424;SDS011;45231;44.826;20.312;2023-05-07T13:33:45;5.07;;;2.40;;
59424;SDS011;45231;44.826;20.312;2023-05-07T13:36:12;4.70;;;2.42;;
59424;SDS011;45231;44.826;20.312;2023-05-07T13:38:39;4.72;;;2.40;;
59424;SDS011;45231;44.826;20.312;2023-05-07T13:41:05;5.82;;;2.60;;
59424;SDS011;45231;44.826;20.312;2023-05-07T13:43:31;4.10;;;2.00;;
59424;SDS011;45231;44.826;20.312;2023-05-07T13:45:58;4.85;;;1.95;;
59424;SDS011;45231;44.826;20.312;2023-05-07T13:48:25;4.25;;;2.10;;
59424;SDS011;45231;44.826;20.312;2023-05-07T13:50:51;4.78;;;2.00;;
59424;SDS011;45231;44.826;20.312;2023-05-07T13:53:17;5.40;;;2.35;;
59424;SDS011;45231;44.826;20.312;2023-05-07T13:55:44;7.03;;;2.08;;
59424;SDS011;45231;44.826;20.312;2023-05-07T13:58:10;5.00;;;1.95;;
59424;SDS011;45231;44.826;20.312;2023-05-07T14:00:36;5.57;;;2.15;;
59424;SDS011;45231;44.826;20.312;2023-05-07T14:03:02;5.20;;;1.90;;
59424;SDS011;45231;44.826;20.312;2023-05-07T14:05:28;6.13;;;2.30;;
59424;SDS011;45231;44.826;20.312;2023-05-07T14:07:55;4.35;;;2.00;;
59424;SDS011;45231;44.826;20.312;2023-05-07T14:10:22;3.92;;;2.10;;
59424;SDS011;45231;44.826;20.312;2023-05-07T14:12:48;5.13;;;2.30;;
59424;SDS011;45231;44.826;20.312;2023-05-07T14:15:14;3.58;;;2.08;;
59424;SDS011;45231;44.826;20.312;2023-05-07T14:17:41;4.00;;;2.05;;
59424;SDS011;45231;44.826;20.312;2023-05-07T14:20:07;4.25;;;2.25;;
59424;SDS011;45231;44.826;20.312;2023-05-07T14:22:33;5.93;;;2.30;;
59424;SDS011;45231;44.826;20.312;2023-05-07T14:25:00;4.90;;;2.55;;
59424;SDS011;45231;44.826;20.312;2023-05-07T14:27:26;4.63;;;2.30;;
59424;SDS011;45231;44.826;20.312;2023-05-07T14:29:52;6.57;;;2.70;;
59424;SDS011;45231;44.826;20.312;2023-05-07T14:32:18;7.30;;;2.45;;
59424;SDS011;45231;44.826;20.312;2023-05-07T14:34:44;5.30;;;2.53;;
59424;SDS011;45231;44.826;20.312;2023-05-07T14:37:11;4.57;;;2.20;;
59424;SDS011;45231;44.826;20.312;2023-05-07T14:39:37;5.35;;;2.33;;
59424;SDS011;45231;44.826;20.312;2023-05-07T14:42:03;5.57;;;2.90;;
59424;SDS011;45231;44.826;20.312;2023-05-07T14:44:30;4.70;;;2.50;;
59424;SDS011;45231;44.826;20.312;2023-05-07T14:46:56;5.32;;;2.20;;
59424;SDS011;45231;44.826;20.312;2023-05-07T14:49:22;6.00;;;2.70;;
59424;SDS011;45231;44.826;20.312;2023-05-07T14:51:48;5.63;;;2.45;;
59424;SDS011;45231;44.826;20.312;2023-05-07T14:54:15;4.80;;;2.50;;
59424;SDS011;45231;44.826;20.312;2023-05-07T14:56:41;7.32;;;2.70;;
59424;SDS011;45231;44.826;20.312;2023-05-07T14:59:07;5.95;;;2.70;;
59424;SDS011;45231;44.826;20.312;2023-05-07T15:01:34;5.47;;;2.67;;
59424;SDS011;45231;44.826;20.312;2023-05-07T15:04:01;6.13;;;2.95;;
59424;SDS011;45231;44.826;20.312;2023-05-07T15:06:27;5.65;;;2.70;;
59424;SDS011;45231;44.826;20.312;2023-05-07T15:08:54;6.28;;;2.20;;
59424;SDS011;45231;44.826;20.312;2023-05-07T15:11:20;7.00;;;2.42;;
59424;SDS011;45231;44.826;20.312;2023-05-07T15:16:12;5.20;;;2.60;;
59424;SDS011;45231;44.826;20.312;2023-05-07T15:18:38;6.57;;;2.50;;
59424;SDS011;45231;44.826;20.312;2023-05-07T15:21:05;5.95;;;2.50;;
59424;SDS011;45231;44.826;20.312;2023-05-07T15:23:31;4.93;;;2.45;;
59424;SDS011;45231;44.826;20.312;2023-05-07T15:28:23;5.30;;;2.40;;
59424;SDS011;45231;44.826;20.312;2023-05-07T15:30:50;5.90;;;2.50;;
59424;SDS011;45231;44.826;20.312;2023-05-07T15:33:16;4.10;;;2.40;;